KCNW/CNW METAR and TAF weather

Enter ICAO airport designator
Station Type Date Time Source
KCNW METAR 2021/01/17 18:55 UTC NOAA

KCNW 171855Z 02008KT 10SM SKC 16/M04 A3013


Station Type Date Time Source
KCNW Decoded METAR 2021/01/17 18:55 UTC NOAA

Station name not available
Jan 17, 2021 - 01:55 PM EST / 2021.01.17 1855 UTC
Wind: from the NNE (020 degrees) at 9 MPH (8 KT):0
Visibility: 10 mile(s):0
Sky conditions: clear
Temperature: 60 F (16 C)
Dew Point: 24 F (-4 C)
Relative Humidity: 25%
Pressure (altimeter): 30.13 in. Hg (1020 hPa)
ob: KCNW 171855Z 02008KT 10SM SKC 16/M04 A3013
cycle: 19

Station Type Date Time Source
KCNW TAF UTC NOAA

Error!

Example: see airport list